sensor_id;sensor_type;location;lat;lon;timestamp;temperature;humidity
39219;DHT22;24934;52.752;6.964;2023-01-09T00:01:23;6.70;99.90
39219;DHT22;24934;52.752;6.964;2023-01-09T00:03:49;6.70;99.90
39219;DHT22;24934;52.752;6.964;2023-01-09T00:06:15;6.70;99.90
39219;DHT22;24934;52.752;6.964;2023-01-09T00:08:41;6.70;99.90
39219;DHT22;24934;52.752;6.964;2023-01-09T00:11:07;6.70;99.90
39219;DHT22;24934;52.752;6.964;2023-01-09T00:13:34;6.70;99.90
39219;DHT22;24934;52.752;6.964;2023-01-09T00:16:00;6.80;99.90
39219;DHT22;24934;52.752;6.964;2023-01-09T00:18:28;6.70;99.90
39219;DHT22;24934;52.752;6.964;2023-01-09T00:20:54;6.70;99.90
39219;DHT22;24934;52.752;6.964;2023-01-09T00:23:20;6.70;99.90
39219;DHT22;24934;52.752;6.964;2023-01-09T00:25:45;6.70;99.90
39219;DHT22;24934;52.752;6.964;2023-01-09T00:28:11;6.70;99.90
39219;DHT22;24934;52.752;6.964;2023-01-09T00:30:37;6.70;99.90
39219;DHT22;24934;52.752;6.964;2023-01-09T00:33:02;6.70;99.90
39219;DHT22;24934;52.752;6.964;2023-01-09T00:35:28;6.70;99.90
39219;DHT22;24934;52.752;6.964;2023-01-09T00:37:54;6.70;99.90
39219;DHT22;24934;52.752;6.964;2023-01-09T00:40:20;6.70;99.90
39219;DHT22;24934;52.752;6.964;2023-01-09T00:42:49;6.60;99.90
39219;DHT22;24934;52.752;6.964;2023-01-09T00:45:20;6.60;99.90
39219;DHT22;24934;52.752;6.964;2023-01-09T00:47:50;6.60;99.90
39219;DHT22;24934;52.752;6.964;2023-01-09T00:50:23;6.60;99.90
39219;DHT22;24934;52.752;6.964;2023-01-09T00:52:52;6.70;99.90
39219;DHT22;24934;52.752;6.964;2023-01-09T00:55:18;6.70;99.90
39219;DHT22;24934;52.752;6.964;2023-01-09T00:57:44;6.70;99.90
39219;DHT22;24934;52.752;6.964;2023-01-09T01:00:11;6.60;99.90
39219;DHT22;24934;52.752;6.964;2023-01-09T01:02:36;6.60;99.90
39219;DHT22;24934;52.752;6.964;2023-01-09T01:05:02;6.60;99.90
39219;DHT22;24934;52.752;6.964;2023-01-09T01:07:51;6.60;99.90
39219;DHT22;24934;52.752;6.964;2023-01-09T01:10:21;6.60;99.90
39219;DHT22;24934;52.752;6.964;2023-01-09T01:12:48;6.60;99.90
39219;DHT22;24934;52.752;6.964;2023-01-09T01:15:15;6.70;99.90
39219;DHT22;24934;52.752;6.964;2023-01-09T01:17:41;6.70;99.90
39219;DHT22;24934;52.752;6.964;2023-01-09T01:20:11;6.70;99.90
39219;DHT22;24934;52.752;6.964;2023-01-09T01:22:37;6.70;99.90
39219;DHT22;24934;52.752;6.964;2023-01-09T01:25:04;6.70;99.90
39219;DHT22;24934;52.752;6.964;2023-01-09T01:27:30;6.70;99.90
39219;DHT22;24934;52.752;6.964;2023-01-09T01:29:55;6.60;99.90
39219;DHT22;24934;52.752;6.964;2023-01-09T01:32:21;6.60;99.90
39219;DHT22;24934;52.752;6.964;2023-01-09T01:34:47;6.70;99.90
39219;DHT22;24934;52.752;6.964;2023-01-09T01:37:12;6.60;99.90
39219;DHT22;24934;52.752;6.964;2023-01-09T01:39:46;6.60;99.90
39219;DHT22;24934;52.752;6.964;2023-01-09T01:42:12;6.60;99.90
39219;DHT22;24934;52.752;6.964;2023-01-09T01:47:45;6.60;99.90
39219;DHT22;24934;52.752;6.964;2023-01-09T01:50:26;6.60;99.90
39219;DHT22;24934;52.752;6.964;2023-01-09T01:53:05;6.50;99.90
39219;DHT22;24934;52.752;6.964;2023-01-09T01:55:34;6.50;99.90
39219;DHT22;24934;52.752;6.964;2023-01-09T01:58:05;6.50;99.90
39219;DHT22;24934;52.752;6.964;2023-01-09T02:00:37;6.50;99.90
39219;DHT22;24934;52.752;6.964;2023-01-09T02:03:03;6.50;99.90
39219;DHT22;24934;52.752;6.964;2023-01-09T02:05:30;6.40;99.90
39219;DHT22;24934;52.752;6.964;2023-01-09T02:07:56;6.40;99.90
39219;DHT22;24934;52.752;6.964;2023-01-09T02:10:22;6.40;99.90
39219;DHT22;24934;52.752;6.964;2023-01-09T02:12:48;6.40;99.90
39219;DHT22;24934;52.752;6.964;2023-01-09T02:15:18;6.30;99.90
39219;DHT22;24934;52.752;6.964;2023-01-09T02:34:35;6.00;99.90
39219;DHT22;24934;52.752;6.964;2023-01-09T02:39:57;5.90;99.90
39219;DHT22;24934;52.752;6.964;2023-01-09T02:42:24;5.80;99.90
39219;DHT22;24934;52.752;6.964;2023-01-09T02:44:51;5.80;99.90
39219;DHT22;24934;52.752;6.964;2023-01-09T02:50:05;5.70;99.90
39219;DHT22;24934;52.752;6.964;2023-01-09T02:57:59;5.60;99.90
39219;DHT22;24934;52.752;6.964;2023-01-09T03:00:43;5.60;99.90
39219;DHT22;24934;52.752;6.964;2023-01-09T03:08:46;5.40;99.90
39219;DHT22;24934;52.752;6.964;2023-01-09T03:11:13;5.30;99.90
39219;DHT22;24934;52.752;6.964;2023-01-09T03:13:44;5.30;99.90
39219;DHT22;24934;52.752;6.964;2023-01-09T03:16:13;5.20;99.90
39219;DHT22;24934;52.752;6.964;2023-01-09T03:18:41;5.10;99.90
39219;DHT22;24934;52.752;6.964;2023-01-09T03:21:08;5.10;99.90
39219;DHT22;24934;52.752;6.964;2023-01-09T03:26:20;5.00;99.90
39219;DHT22;24934;52.752;6.964;2023-01-09T03:28:49;5.00;99.90
39219;DHT22;24934;52.752;6.964;2023-01-09T03:31:16;4.90;99.90
39219;DHT22;24934;52.752;6.964;2023-01-09T03:33:42;4.90;99.90
39219;DHT22;24934;52.752;6.964;2023-01-09T03:36:09;4.90;99.90
39219;DHT22;24934;52.752;6.964;2023-01-09T03:38:35;4.80;99.90
39219;DHT22;24934;52.752;6.964;2023-01-09T03:41:04;4.80;99.90
39219;DHT22;24934;52.752;6.964;2023-01-09T03:43:33;4.80;99.90
39219;DHT22;24934;52.752;6.964;2023-01-09T03:45:59;4.70;99.90
39219;DHT22;24934;52.752;6.964;2023-01-09T03:48:28;4.60;99.90
39219;DHT22;24934;52.752;6.964;2023-01-09T03:50:54;4.50;99.90
39219;DHT22;24934;52.752;6.964;2023-01-09T03:53:22;4.50;99.90
39219;DHT22;24934;52.752;6.964;2023-01-09T03:55:50;4.50;99.90
39219;DHT22;24934;52.752;6.964;2023-01-09T03:58:17;4.40;99.90
39219;DHT22;24934;52.752;6.964;2023-01-09T04:00:47;4.40;99.90
39219;DHT22;24934;52.752;6.964;2023-01-09T04:03:18;4.30;99.90
39219;DHT22;24934;52.752;6.964;2023-01-09T04:05:45;4.30;99.90
39219;DHT22;24934;52.752;6.964;2023-01-09T04:08:17;4.30;99.90
39219;DHT22;24934;52.752;6.964;2023-01-09T04:10:44;4.30;99.90
39219;DHT22;24934;52.752;6.964;2023-01-09T04:13:12;4.40;99.90
39219;DHT22;24934;52.752;6.964;2023-01-09T04:15:38;4.50;99.90
39219;DHT22;24934;52.752;6.964;2023-01-09T04:18:04;4.40;99.90
39219;DHT22;24934;52.752;6.964;2023-01-09T04:20:30;4.40;99.90
39219;DHT22;24934;52.752;6.964;2023-01-09T04:23:01;4.40;99.90
39219;DHT22;24934;52.752;6.964;2023-01-09T04:25:30;4.50;99.90
39219;DHT22;24934;52.752;6.964;2023-01-09T04:27:56;4.60;99.90
39219;DHT22;24934;52.752;6.964;2023-01-09T04:30:21;4.60;99.90
39219;DHT22;24934;52.752;6.964;2023-01-09T04:32:47;4.60;99.90
39219;DHT22;24934;52.752;6.964;2023-01-09T04:35:13;4.60;99.90
39219;DHT22;24934;52.752;6.964;2023-01-09T04:37:38;4.60;99.90
39219;DHT22;24934;52.752;6.964;2023-01-09T04:40:05;4.50;99.90
39219;DHT22;24934;52.752;6.964;2023-01-09T04:42:40;4.50;99.90
39219;DHT22;24934;52.752;6.964;2023-01-09T04:45:09;4.50;99.90
39219;DHT22;24934;52.752;6.964;2023-01-09T04:47:35;4.50;99.90
39219;DHT22;24934;52.752;6.964;2023-01-09T04:50:01;4.40;99.90
39219;DHT22;24934;52.752;6.964;2023-01-09T04:52:27;4.40;99.90
39219;DHT22;24934;52.752;6.964;2023-01-09T04:54:52;4.40;99.90
39219;DHT22;24934;52.752;6.964;2023-01-09T04:57:18;4.40;99.90
39219;DHT22;24934;52.752;6.964;2023-01-09T04:59:43;4.30;99.90
39219;DHT22;24934;52.752;6.964;2023-01-09T05:02:09;4.30;99.90
39219;DHT22;24934;52.752;6.964;2023-01-09T05:04:35;4.30;99.90
39219;DHT22;24934;52.752;6.964;2023-01-09T05:07:01;4.30;99.90
39219;DHT22;24934;52.752;6.964;2023-01-09T05:09:29;4.40;99.90
39219;DHT22;24934;52.752;6.964;2023-01-09T05:11:55;4.40;99.90
39219;DHT22;24934;52.752;6.964;2023-01-09T05:14:21;4.40;99.90
39219;DHT22;24934;52.752;6.964;2023-01-09T05:16:47;4.40;99.90
39219;DHT22;24934;52.752;6.964;2023-01-09T05:19:15;4.40;99.90
39219;DHT22;24934;52.752;6.964;2023-01-09T05:21:41;4.30;99.90
39219;DHT22;24934;52.752;6.964;2023-01-09T05:24:07;4.30;99.90
39219;DHT22;24934;52.752;6.964;2023-01-09T05:26:32;4.30;99.90
39219;DHT22;24934;52.752;6.964;2023-01-09T05:28:58;4.20;99.90
39219;DHT22;24934;52.752;6.964;2023-01-09T05:31:25;4.20;99.90
39219;DHT22;24934;52.752;6.964;2023-01-09T05:33:51;4.20;99.90
39219;DHT22;24934;52.752;6.964;2023-01-09T05:36:16;4.20;99.90
39219;DHT22;24934;52.752;6.964;2023-01-09T05:38:42;4.20;99.90
39219;DHT22;24934;52.752;6.964;2023-01-09T05:41:11;4.20;99.90
39219;DHT22;24934;52.752;6.964;2023-01-09T05:43:36;4.20;99.90
39219;DHT22;24934;52.752;6.964;2023-01-09T05:46:02;4.20;99.90
39219;DHT22;24934;52.752;6.964;2023-01-09T05:48:31;4.20;99.90
39219;DHT22;24934;52.752;6.964;2023-01-09T05:50:56;4.10;99.90
39219;DHT22;24934;52.752;6.964;2023-01-09T05:53:22;4.20;99.90
39219;DHT22;24934;52.752;6.964;2023-01-09T05:55:50;4.10;99.90
39219;DHT22;24934;52.752;6.964;2023-01-09T05:58:16;4.10;99.90
39219;DHT22;24934;52.752;6.964;2023-01-09T06:00:42;4.20;99.90
39219;DHT22;24934;52.752;6.964;2023-01-09T06:03:07;4.10;99.90
39219;DHT22;24934;52.752;6.964;2023-01-09T06:05:33;4.00;99.90
39219;DHT22;24934;52.752;6.964;2023-01-09T06:07:59;4.00;99.90
39219;DHT22;24934;52.752;6.964;2023-01-09T06:10:24;4.00;99.90
39219;DHT22;24934;52.752;6.964;2023-01-09T06:12:50;4.10;99.90
39219;DHT22;24934;52.752;6.964;2023-01-09T06:15:16;4.10;99.90
39219;DHT22;24934;52.752;6.964;2023-01-09T06:17:42;4.20;99.90
39219;DHT22;24934;52.752;6.964;2023-01-09T06:20:09;4.20;99.90
39219;DHT22;24934;52.752;6.964;2023-01-09T06:22:35;4.20;99.90
39219;DHT22;24934;52.752;6.964;2023-01-09T06:25:01;4.30;99.90
39219;DHT22;24934;52.752;6.964;2023-01-09T06:27:26;4.30;99.90
39219;DHT22;24934;52.752;6.964;2023-01-09T06:29:52;4.30;99.90
39219;DHT22;24934;52.752;6.964;2023-01-09T06:32:18;4.30;99.90
39219;DHT22;24934;52.752;6.964;2023-01-09T06:34:43;4.20;99.90
39219;DHT22;24934;52.752;6.964;2023-01-09T06:37:09;4.20;99.90
39219;DHT22;24934;52.752;6.964;2023-01-09T06:39:35;4.20;99.90
39219;DHT22;24934;52.752;6.964;2023-01-09T06:42:00;4.10;99.90
39219;DHT22;24934;52.752;6.964;2023-01-09T06:44:26;4.10;99.90
39219;DHT22;24934;52.752;6.964;2023-01-09T06:46:55;4.10;99.90
39219;DHT22;24934;52.752;6.964;2023-01-09T06:49:21;4.00;99.90
39219;DHT22;24934;52.752;6.964;2023-01-09T06:51:50;4.00;99.90
39219;DHT22;24934;52.752;6.964;2023-01-09T06:54:16;4.00;99.90
39219;DHT22;24934;52.752;6.964;2023-01-09T06:56:42;4.00;99.90
39219;DHT22;24934;52.752;6.964;2023-01-09T06:59:08;4.00;99.90
39219;DHT22;24934;52.752;6.964;2023-01-09T07:01:33;4.00;99.90
39219;DHT22;24934;52.752;6.964;2023-01-09T07:03:59;4.00;99.90
39219;DHT22;24934;52.752;6.964;2023-01-09T07:06:25;4.00;99.90
39219;DHT22;24934;52.752;6.964;2023-01-09T07:08:50;4.00;99.90
39219;DHT22;24934;52.752;6.964;2023-01-09T07:11:16;4.00;99.90
39219;DHT22;24934;52.752;6.964;2023-01-09T07:13:42;4.10;99.90
39219;DHT22;24934;52.752;6.964;2023-01-09T07:16:08;4.10;99.90
39219;DHT22;24934;52.752;6.964;2023-01-09T07:18:33;4.10;99.90
39219;DHT22;24934;52.752;6.964;2023-01-09T07:20:59;4.10;99.90
39219;DHT22;24934;52.752;6.964;2023-01-09T07:23:25;4.20;99.90
39219;DHT22;24934;52.752;6.964;2023-01-09T07:25:51;4.20;99.90
39219;DHT22;24934;52.752;6.964;2023-01-09T07:28:17;4.20;99.90
39219;DHT22;24934;52.752;6.964;2023-01-09T07:30:42;4.30;99.90
39219;DHT22;24934;52.752;6.964;2023-01-09T07:33:08;4.30;99.90
39219;DHT22;24934;52.752;6.964;2023-01-09T07:35:34;4.30;99.90
39219;DHT22;24934;52.752;6.964;2023-01-09T07:38:02;4.40;99.90
39219;DHT22;24934;52.752;6.964;2023-01-09T07:40:27;4.40;99.90
39219;DHT22;24934;52.752;6.964;2023-01-09T07:42:53;4.40;99.90
39219;DHT22;24934;52.752;6.964;2023-01-09T07:45:19;4.40;99.90
39219;DHT22;24934;52.752;6.964;2023-01-09T07:47:44;4.50;99.90
39219;DHT22;24934;52.752;6.964;2023-01-09T07:50:10;4.50;99.90
39219;DHT22;24934;52.752;6.964;2023-01-09T07:52:36;4.50;99.90
39219;DHT22;24934;52.752;6.964;2023-01-09T07:55:02;4.60;99.90
39219;DHT22;24934;52.752;6.964;2023-01-09T07:57:27;4.60;99.90
39219;DHT22;24934;52.752;6.964;2023-01-09T07:59:55;4.60;99.90
39219;DHT22;24934;52.752;6.964;2023-01-09T08:02:20;4.60;99.90
39219;DHT22;24934;52.752;6.964;2023-01-09T08:04:46;4.70;99.90
39219;DHT22;24934;52.752;6.964;2023-01-09T08:07:11;4.70;99.90
39219;DHT22;24934;52.752;6.964;2023-01-09T08:09:37;4.70;99.90
39219;DHT22;24934;52.752;6.964;2023-01-09T08:12:03;4.80;99.90
39219;DHT22;24934;52.752;6.964;2023-01-09T08:14:29;4.80;99.90
39219;DHT22;24934;52.752;6.964;2023-01-09T08:16:57;4.80;99.90
39219;DHT22;24934;52.752;6.964;2023-01-09T08:19:22;4.80;99.90
39219;DHT22;24934;52.752;6.964;2023-01-09T08:21:48;4.90;99.90
39219;DHT22;24934;52.752;6.964;2023-01-09T08:24:17;4.90;99.90
39219;DHT22;24934;52.752;6.964;2023-01-09T08:26:43;5.00;99.90
39219;DHT22;24934;52.752;6.964;2023-01-09T08:29:09;5.00;99.90
39219;DHT22;24934;52.752;6.964;2023-01-09T08:31:34;5.00;99.90
39219;DHT22;24934;52.752;6.964;2023-01-09T08:34:00;5.10;99.90
39219;DHT22;24934;52.752;6.964;2023-01-09T08:36:29;5.10;99.90
39219;DHT22;24934;52.752;6.964;2023-01-09T08:38:57;5.10;99.90
39219;DHT22;24934;52.752;6.964;2023-01-09T08:41:23;5.20;99.90
39219;DHT22;24934;52.752;6.964;2023-01-09T08:44:07;5.20;99.90
39219;DHT22;24934;52.752;6.964;2023-01-09T08:46:51;5.20;99.90
39219;DHT22;24934;52.752;6.964;2023-01-09T08:49:36;5.30;99.90
39219;DHT22;24934;52.752;6.964;2023-01-09T08:52:04;5.30;99.90
39219;DHT22;24934;52.752;6.964;2023-01-09T08:54:30;5.30;99.90
39219;DHT22;24934;52.752;6.964;2023-01-09T08:56:56;5.40;99.90
39219;DHT22;24934;52.752;6.964;2023-01-09T08:59:22;5.50;99.90
39219;DHT22;24934;52.752;6.964;2023-01-09T09:01:47;5.50;99.90
39219;DHT22;24934;52.752;6.964;2023-01-09T09:04:13;5.50;99.90
39219;DHT22;24934;52.752;6.964;2023-01-09T09:06:41;5.50;99.90
39219;DHT22;24934;52.752;6.964;2023-01-09T09:09:07;5.60;99.90
39219;DHT22;24934;52.752;6.964;2023-01-09T09:11:36;5.60;99.90
39219;DHT22;24934;52.752;6.964;2023-01-09T09:14:01;5.60;99.90
39219;DHT22;24934;52.752;6.964;2023-01-09T09:16:48;5.60;99.90
39219;DHT22;24934;52.752;6.964;2023-01-09T09:19:13;5.60;99.90
39219;DHT22;24934;52.752;6.964;2023-01-09T09:21:39;5.60;99.90
39219;DHT22;24934;52.752;6.964;2023-01-09T09:24:05;5.60;99.90
39219;DHT22;24934;52.752;6.964;2023-01-09T09:26:30;5.70;99.90
39219;DHT22;24934;52.752;6.964;2023-01-09T09:28:57;5.70;99.90
39219;DHT22;24934;52.752;6.964;2023-01-09T09:31:23;5.70;99.90
39219;DHT22;24934;52.752;6.964;2023-01-09T09:33:48;5.80;99.90
39219;DHT22;24934;52.752;6.964;2023-01-09T09:36:17;5.80;99.90
39219;DHT22;24934;52.752;6.964;2023-01-09T09:38:46;5.90;99.90
39219;DHT22;24934;52.752;6.964;2023-01-09T09:55:23;6.10;99.90
39219;DHT22;24934;52.752;6.964;2023-01-09T09:57:50;6.10;99.90
39219;DHT22;24934;52.752;6.964;2023-01-09T10:00:21;6.20;99.90
39219;DHT22;24934;52.752;6.964;2023-01-09T10:05:37;6.20;99.90
39219;DHT22;24934;52.752;6.964;2023-01-09T10:10:53;6.30;99.90
39219;DHT22;24934;52.752;6.964;2023-01-09T10:13:22;6.20;99.90
39219;DHT22;24934;52.752;6.964;2023-01-09T10:21:36;6.20;99.90
39219;DHT22;24934;52.752;6.964;2023-01-09T10:24:09;6.20;99.90
39219;DHT22;24934;52.752;6.964;2023-01-09T10:26:46;6.20;99.90
39219;DHT22;24934;52.752;6.964;2023-01-09T10:29:28;6.20;99.90
39219;DHT22;24934;52.752;6.964;2023-01-09T10:37:23;6.20;99.90
39219;DHT22;24934;52.752;6.964;2023-01-09T10:40:13;6.20;99.90
39219;DHT22;24934;52.752;6.964;2023-01-09T10:42:46;6.20;99.90
39219;DHT22;24934;52.752;6.964;2023-01-09T10:45:51;6.20;99.90
39219;DHT22;24934;52.752;6.964;2023-01-09T10:48:25;6.20;99.90
39219;DHT22;24934;52.752;6.964;2023-01-09T10:50:54;6.20;99.90
39219;DHT22;24934;52.752;6.964;2023-01-09T10:53:25;6.20;99.90
39219;DHT22;24934;52.752;6.964;2023-01-09T10:55:56;6.30;99.90
39219;DHT22;24934;52.752;6.964;2023-01-09T10:58:24;6.30;99.90
39219;DHT22;24934;52.752;6.964;2023-01-09T11:00:50;6.30;99.90
39219;DHT22;24934;52.752;6.964;2023-01-09T11:03:19;6.30;99.90
39219;DHT22;24934;52.752;6.964;2023-01-09T11:05:51;6.20;99.90
39219;DHT22;24934;52.752;6.964;2023-01-09T11:10:45;6.30;99.90
39219;DHT22;24934;52.752;6.964;2023-01-09T11:13:35;6.30;99.90
39219;DHT22;24934;52.752;6.964;2023-01-09T11:16:18;6.30;99.90
39219;DHT22;24934;52.752;6.964;2023-01-09T11:18:51;6.30;99.90
39219;DHT22;24934;52.752;6.964;2023-01-09T11:23:53;6.30;99.90
39219;DHT22;24934;52.752;6.964;2023-01-09T11:26:26;6.30;99.90
39219;DHT22;24934;52.752;6.964;2023-01-09T11:29:13;6.30;99.90
39219;DHT22;24934;52.752;6.964;2023-01-09T11:31:40;6.30;99.90
39219;DHT22;24934;52.752;6.964;2023-01-09T11:34:27;6.30;99.90
39219;DHT22;24934;52.752;6.964;2023-01-09T11:37:43;6.30;99.90
39219;DHT22;24934;52.752;6.964;2023-01-09T11:39:49;6.30;99.90
39219;DHT22;24934;52.752;6.964;2023-01-09T11:42:20;6.30;99.90
39219;DHT22;24934;52.752;6.964;2023-01-09T11:45:27;6.30;99.90
39219;DHT22;24934;52.752;6.964;2023-01-09T11:47:58;6.30;99.90
39219;DHT22;24934;52.752;6.964;2023-01-09T11:50:25;6.30;99.90
39219;DHT22;24934;52.752;6.964;2023-01-09T11:53:17;6.30;99.90
39219;DHT22;24934;52.752;6.964;2023-01-09T11:55:44;6.30;99.90
39219;DHT22;24934;52.752;6.964;2023-01-09T11:58:13;6.30;99.90
39219;DHT22;24934;52.752;6.964;2023-01-09T12:03:35;6.40;99.90
39219;DHT22;24934;52.752;6.964;2023-01-09T12:06:32;6.40;99.90
39219;DHT22;24934;52.752;6.964;2023-01-09T12:12:24;6.40;99.90
39219;DHT22;24934;52.752;6.964;2023-01-09T12:15:07;6.40;99.90
39219;DHT22;24934;52.752;6.964;2023-01-09T12:17:52;6.40;99.90
39219;DHT22;24934;52.752;6.964;2023-01-09T12:20:54;6.40;99.90
39219;DHT22;24934;52.752;6.964;2023-01-09T12:40:32;6.70;99.90
39219;DHT22;24934;52.752;6.964;2023-01-09T12:45:54;6.80;99.90
39219;DHT22;24934;52.752;6.964;2023-01-09T12:48:57;6.80;99.90
39219;DHT22;24934;52.752;6.964;2023-01-09T12:52:11;6.80;99.90
39219;DHT22;24934;52.752;6.964;2023-01-09T12:54:59;6.80;99.90
39219;DHT22;24934;52.752;6.964;2023-01-09T12:57:37;6.90;99.90
39219;DHT22;24934;52.752;6.964;2023-01-09T13:03:09;6.80;99.90
39219;DHT22;24934;52.752;6.964;2023-01-09T13:05:50;6.80;99.90
39219;DHT22;24934;52.752;6.964;2023-01-09T13:13:35;6.80;99.90
39219;DHT22;24934;52.752;6.964;2023-01-09T13:16:12;6.80;99.90
39219;DHT22;24934;52.752;6.964;2023-01-09T13:18:51;6.80;99.90
39219;DHT22;24934;52.752;6.964;2023-01-09T13:21:20;6.80;99.90
39219;DHT22;24934;52.752;6.964;2023-01-09T13:26:29;6.80;99.90
39219;DHT22;24934;52.752;6.964;2023-01-09T13:29:11;6.80;99.90
39219;DHT22;24934;52.752;6.964;2023-01-09T13:34:24;6.80;99.90
39219;DHT22;24934;52.752;6.964;2023-01-09T13:36:53;6.90;99.90
39219;DHT22;24934;52.752;6.964;2023-01-09T13:39:24;6.90;99.90
39219;DHT22;24934;52.752;6.964;2023-01-09T13:41:56;6.90;99.90
39219;DHT22;24934;52.752;6.964;2023-01-09T13:44:41;6.90;99.90
39219;DHT22;24934;52.752;6.964;2023-01-09T13:47:27;6.90;99.90
39219;DHT22;24934;52.752;6.964;2023-01-09T13:50:03;6.90;99.90
39219;DHT22;24934;52.752;6.964;2023-01-09T13:52:41;6.90;99.90
39219;DHT22;24934;52.752;6.964;2023-01-09T14:13:25;7.00;99.90
39219;DHT22;24934;52.752;6.964;2023-01-09T14:16:03;7.10;99.90
39219;DHT22;24934;52.752;6.964;2023-01-09T14:18:35;7.10;99.90
39219;DHT22;24934;52.752;6.964;2023-01-09T14:21:07;7.10;99.90
39219;DHT22;24934;52.752;6.964;2023-01-09T14:23:53;7.00;99.90
39219;DHT22;24934;52.752;6.964;2023-01-09T14:26:22;7.00;99.90
39219;DHT22;24934;52.752;6.964;2023-01-09T14:28:49;7.10;99.90
39219;DHT22;24934;52.752;6.964;2023-01-09T14:31:30;7.10;99.90
39219;DHT22;24934;52.752;6.964;2023-01-09T14:34:23;7.10;99.90
39219;DHT22;24934;52.752;6.964;2023-01-09T14:36:53;7.10;99.90
39219;DHT22;24934;52.752;6.964;2023-01-09T14:39:21;7.10;99.90
39219;DHT22;24934;52.752;6.964;2023-01-09T14:41:55;7.00;99.90
39219;DHT22;24934;52.752;6.964;2023-01-09T14:44:31;7.00;99.90
39219;DHT22;24934;52.752;6.964;2023-01-09T14:50:26;7.00;99.90
39219;DHT22;24934;52.752;6.964;2023-01-09T14:53:01;7.00;99.90
39219;DHT22;24934;52.752;6.964;2023-01-09T14:55:57;7.00;99.90
39219;DHT22;24934;52.752;6.964;2023-01-09T15:01:12;6.90;99.90
39219;DHT22;24934;52.752;6.964;2023-01-09T15:03:45;6.90;99.90
39219;DHT22;24934;52.752;6.964;2023-01-09T15:06:23;6.90;99.90
39219;DHT22;24934;52.752;6.964;2023-01-09T15:11:41;6.90;99.90
39219;DHT22;24934;52.752;6.964;2023-01-09T15:14:18;6.90;99.90
39219;DHT22;24934;52.752;6.964;2023-01-09T15:16:47;6.90;99.90
39219;DHT22;24934;52.752;6.964;2023-01-09T15:19:13;6.90;99.90
39219;DHT22;24934;52.752;6.964;2023-01-09T15:21:39;6.90;99.90
39219;DHT22;24934;52.752;6.964;2023-01-09T15:24:25;6.90;99.90
39219;DHT22;24934;52.752;6.964;2023-01-09T15:27:09;6.90;99.90
39219;DHT22;24934;52.752;6.964;2023-01-09T15:29:35;6.80;99.90
39219;DHT22;24934;52.752;6.964;2023-01-09T15:32:04;6.80;99.90
39219;DHT22;24934;52.752;6.964;2023-01-09T15:34:31;6.80;99.90
39219;DHT22;24934;52.752;6.964;2023-01-09T15:36:57;6.80;99.90
39219;DHT22;24934;52.752;6.964;2023-01-09T15:39:36;6.80;99.90
39219;DHT22;24934;52.752;6.964;2023-01-09T15:42:03;6.80;99.90
39219;DHT22;24934;52.752;6.964;2023-01-09T15:44:49;6.80;99.90
39219;DHT22;24934;52.752;6.964;2023-01-09T15:47:23;6.80;99.90
39219;DHT22;24934;52.752;6.964;2023-01-09T15:49:52;6.80;99.90
39219;DHT22;24934;52.752;6.964;2023-01-09T15:52:20;6.80;99.90
39219;DHT22;24934;52.752;6.964;2023-01-09T15:54:48;6.70;99.90
39219;DHT22;24934;52.752;6.964;2023-01-09T15:59:56;6.60;99.90
39219;DHT22;24934;52.752;6.964;2023-01-09T16:02:24;6.60;99.90
39219;DHT22;24934;52.752;6.964;2023-01-09T16:05:14;6.50;99.90
39219;DHT22;24934;52.752;6.964;2023-01-09T16:07:50;6.40;99.90
39219;DHT22;24934;52.752;6.964;2023-01-09T16:10:35;6.40;99.90
39219;DHT22;24934;52.752;6.964;2023-01-09T16:13:10;6.30;99.90
39219;DHT22;24934;52.752;6.964;2023-01-09T16:15:37;6.40;99.90
39219;DHT22;24934;52.752;6.964;2023-01-09T16:18:19;6.40;99.90
39219;DHT22;24934;52.752;6.964;2023-01-09T16:20:46;6.40;99.90
39219;DHT22;24934;52.752;6.964;2023-01-09T16:23:21;6.40;99.90
39219;DHT22;24934;52.752;6.964;2023-01-09T16:25:48;6.40;99.90
39219;DHT22;24934;52.752;6.964;2023-01-09T16:28:23;6.40;99.90
39219;DHT22;24934;52.752;6.964;2023-01-09T16:31:04;6.40;99.90
39219;DHT22;24934;52.752;6.964;2023-01-09T16:33:32;6.40;99.90
39219;DHT22;24934;52.752;6.964;2023-01-09T16:35:59;6.40;99.90
39219;DHT22;24934;52.752;6.964;2023-01-09T16:38:26;6.40;99.90
39219;DHT22;24934;52.752;6.964;2023-01-09T16:43:44;6.30;99.90
39219;DHT22;24934;52.752;6.964;2023-01-09T16:46:10;6.30;99.90
39219;DHT22;24934;52.752;6.964;2023-01-09T16:48:39;6.30;99.90
39219;DHT22;24934;52.752;6.964;2023-01-09T16:51:05;6.20;99.90
39219;DHT22;24934;52.752;6.964;2023-01-09T16:53:31;6.20;99.90
39219;DHT22;24934;52.752;6.964;2023-01-09T16:55:57;6.10;99.90
39219;DHT22;24934;52.752;6.964;2023-01-09T16:58:25;6.10;99.90
39219;DHT22;24934;52.752;6.964;2023-01-09T17:00:52;6.00;99.90
39219;DHT22;24934;52.752;6.964;2023-01-09T17:03:18;6.00;99.90
39219;DHT22;24934;52.752;6.964;2023-01-09T17:05:53;5.90;99.90
39219;DHT22;24934;52.752;6.964;2023-01-09T17:10:47;5.80;99.90
39219;DHT22;24934;52.752;6.964;2023-01-09T17:13:15;5.80;99.90
39219;DHT22;24934;52.752;6.964;2023-01-09T17:15:41;5.80;99.90
39219;DHT22;24934;52.752;6.964;2023-01-09T17:18:17;5.80;99.90
39219;DHT22;24934;52.752;6.964;2023-01-09T17:20:52;5.80;99.90
39219;DHT22;24934;52.752;6.964;2023-01-09T17:23:18;5.70;99.90
39219;DHT22;24934;52.752;6.964;2023-01-09T17:25:52;5.80;99.90
39219;DHT22;24934;52.752;6.964;2023-01-09T17:28:38;5.80;99.90
39219;DHT22;24934;52.752;6.964;2023-01-09T17:31:10;5.80;99.90
39219;DHT22;24934;52.752;6.964;2023-01-09T17:33:37;5.90;99.90
39219;DHT22;24934;52.752;6.964;2023-01-09T17:36:17;5.90;99.90
39219;DHT22;24934;52.752;6.964;2023-01-09T17:38:45;5.90;99.90
39219;DHT22;24934;52.752;6.964;2023-01-09T17:41:12;5.80;99.90
39219;DHT22;24934;52.752;6.964;2023-01-09T17:43:38;5.70;99.90
39219;DHT22;24934;52.752;6.964;2023-01-09T17:46:03;5.70;99.90
39219;DHT22;24934;52.752;6.964;2023-01-09T17:48:32;5.60;99.90
39219;DHT22;24934;52.752;6.964;2023-01-09T17:50:57;5.60;99.90
39219;DHT22;24934;52.752;6.964;2023-01-09T17:53:23;5.50;99.90
39219;DHT22;24934;52.752;6.964;2023-01-09T17:55:49;5.50;99.90
39219;DHT22;24934;52.752;6.964;2023-01-09T17:58:24;5.50;99.90
39219;DHT22;24934;52.752;6.964;2023-01-09T18:00:50;5.40;99.90
39219;DHT22;24934;52.752;6.964;2023-01-09T18:03:16;5.30;99.90
39219;DHT22;24934;52.752;6.964;2023-01-09T18:05:42;5.20;99.90
39219;DHT22;24934;52.752;6.964;2023-01-09T18:08:11;5.20;99.90
39219;DHT22;24934;52.752;6.964;2023-01-09T18:10:37;5.20;99.90
39219;DHT22;24934;52.752;6.964;2023-01-09T18:13:05;5.20;99.90
39219;DHT22;24934;52.752;6.964;2023-01-09T18:15:33;5.20;99.90
39219;DHT22;24934;52.752;6.964;2023-01-09T18:17:59;5.20;99.90
39219;DHT22;24934;52.752;6.964;2023-01-09T18:20:24;5.20;99.90
39219;DHT22;24934;52.752;6.964;2023-01-09T18:22:53;5.20;99.90
39219;DHT22;24934;52.752;6.964;2023-01-09T18:25:18;5.10;99.90
39219;DHT22;24934;52.752;6.964;2023-01-09T18:27:44;5.10;99.90
39219;DHT22;24934;52.752;6.964;2023-01-09T18:30:10;5.10;99.90
39219;DHT22;24934;52.752;6.964;2023-01-09T18:32:38;5.20;99.90